sensor_id;sensor_type;location;lat;lon;timestamp;pressure;altitude;pressure_sealevel;temperature;humidity
46583;BME280;32309;48.858;8.252;2022-12-24T00:01:41;99831.75;;;11.78;80.27
46583;BME280;32309;48.858;8.252;2022-12-24T00:03:41;99847.34;;;11.78;78.88
46583;BME280;32309;48.858;8.252;2022-12-24T00:05:41;99836.13;;;11.77;78.83
46583;BME280;32309;48.858;8.252;2022-12-24T00:07:41;99848.16;;;11.78;78.58
46583;BME280;32309;48.858;8.252;2022-12-24T00:09:42;99845.47;;;11.80;79.94
46583;BME280;32309;48.858;8.252;2022-12-24T00:11:42;99843.81;;;11.79;80.31
46583;BME280;32309;48.858;8.252;2022-12-24T00:13:42;99834.47;;;11.76;80.49
46583;BME280;32309;48.858;8.252;2022-12-24T00:15:42;99826.69;;;11.76;80.34
46583;BME280;32309;48.858;8.252;2022-12-24T00:17:42;99831.13;;;11.74;79.25
46583;BME280;32309;48.858;8.252;2022-12-24T00:19:43;99825.13;;;11.74;78.56
46583;BME280;32309;48.858;8.252;2022-12-24T00:21:43;99825.94;;;11.74;80.14
46583;BME280;32309;48.858;8.252;2022-12-24T00:23:43;99832.19;;;11.72;79.33
46583;BME280;32309;48.858;8.252;2022-12-24T00:25:43;99839.16;;;11.71;79.75
46583;BME280;32309;48.858;8.252;2022-12-24T00:27:43;99847.88;;;11.70;81.43
46583;BME280;32309;48.858;8.252;2022-12-24T00:29:44;99843.00;;;11.65;81.52
46583;BME280;32309;48.858;8.252;2022-12-24T00:31:44;99833.66;;;11.63;81.95
46583;BME280;32309;48.858;8.252;2022-12-24T00:33:44;99837.31;;;11.60;81.91
46583;BME280;32309;48.858;8.252;2022-12-24T00:35:44;99835.63;;;11.59;82.27
46583;BME280;32309;48.858;8.252;2022-12-24T00:37:48;99844.47;;;11.57;80.93
46583;BME280;32309;48.858;8.252;2022-12-24T00:39:49;99857.44;;;11.57;81.68
46583;BME280;32309;48.858;8.252;2022-12-24T00:41:49;99880.09;;;11.55;83.48
46583;BME280;32309;48.858;8.252;2022-12-24T00:43:50;99891.41;;;11.54;85.62
46583;BME280;32309;48.858;8.252;2022-12-24T00:45:51;99913.06;;;11.40;87.74
46583;BME280;32309;48.858;8.252;2022-12-24T00:47:51;99903.31;;;11.30;88.03
46583;BME280;32309;48.858;8.252;2022-12-24T00:49:51;99908.47;;;11.18;88.13
46583;BME280;32309;48.858;8.252;2022-12-24T00:51:51;99910.53;;;11.12;88.08
46583;BME280;32309;48.858;8.252;2022-12-24T00:53:52;99917.81;;;11.07;87.93
46583;BME280;32309;48.858;8.252;2022-12-24T00:55:52;99919.03;;;11.02;87.88
46583;BME280;32309;48.858;8.252;2022-12-24T00:57:52;99915.41;;;11.04;87.75
46583;BME280;32309;48.858;8.252;2022-12-24T00:59:52;99934.56;;;11.02;86.77
46583;BME280;32309;48.858;8.252;2022-12-24T01:01:52;99932.09;;;11.00;88.36
46583;BME280;32309;48.858;8.252;2022-12-24T01:03:52;99933.13;;;10.97;87.86
46583;BME280;32309;48.858;8.252;2022-12-24T01:06:13;99941.00;;;10.96;88.55
46583;BME280;32309;48.858;8.252;2022-12-24T01:08:14;99951.47;;;10.94;89.07
46583;BME280;32309;48.858;8.252;2022-12-24T01:10:16;99944.72;;;10.92;89.43
46583;BME280;32309;48.858;8.252;2022-12-24T01:12:16;99951.66;;;10.91;89.52
46583;BME280;32309;48.858;8.252;2022-12-24T01:14:16;99959.63;;;10.88;90.38
46583;BME280;32309;48.858;8.252;2022-12-24T01:16:17;99966.59;;;10.88;90.44
46583;BME280;32309;48.858;8.252;2022-12-24T01:18:18;99959.00;;;10.85;91.03
46583;BME280;32309;48.858;8.252;2022-12-24T01:20:18;99951.41;;;10.81;90.70
46583;BME280;32309;48.858;8.252;2022-12-24T01:22:18;99963.75;;;10.78;91.04
46583;BME280;32309;48.858;8.252;2022-12-24T01:24:18;99975.34;;;10.72;92.65
46583;BME280;32309;48.858;8.252;2022-12-24T01:26:18;99967.84;;;10.68;93.67
46583;BME280;32309;48.858;8.252;2022-12-24T01:28:19;99955.19;;;10.63;93.13
46583;BME280;32309;48.858;8.252;2022-12-24T01:30:20;99971.66;;;10.62;93.40
46583;BME280;32309;48.858;8.252;2022-12-24T01:32:20;99983.78;;;10.61;92.54
46583;BME280;32309;48.858;8.252;2022-12-24T01:34:20;99989.78;;;10.62;93.15
46583;BME280;32309;48.858;8.252;2022-12-24T01:36:20;99983.78;;;10.61;92.74
46583;BME280;32309;48.858;8.252;2022-12-24T01:38:20;99989.78;;;10.62;92.96
46583;BME280;32309;48.858;8.252;2022-12-24T01:40:20;99993.22;;;10.62;93.36
46583;BME280;32309;48.858;8.252;2022-12-24T01:42:40;99998.50;;;10.61;92.97
46583;BME280;32309;48.858;8.252;2022-12-24T01:45:21;99999.44;;;10.60;94.34
46583;BME280;32309;48.858;8.252;2022-12-24T01:47:22;100008.22;;;10.57;94.92
46583;BME280;32309;48.858;8.252;2022-12-24T01:49:23;100020.44;;;10.55;94.50
46583;BME280;32309;48.858;8.252;2022-12-24T01:51:36;100018.97;;;10.51;94.78
46583;BME280;32309;48.858;8.252;2022-12-24T01:53:38;100016.56;;;10.48;93.18
46583;BME280;32309;48.858;8.252;2022-12-24T01:55:38;100003.78;;;10.45;93.24
46583;BME280;32309;48.858;8.252;2022-12-24T01:57:44;100008.97;;;10.45;93.12
46583;BME280;32309;48.858;8.252;2022-12-24T01:59:46;99998.69;;;10.43;93.40
46583;BME280;32309;48.858;8.252;2022-12-24T02:01:48;100005.56;;;10.44;94.61
46583;BME280;32309;48.858;8.252;2022-12-24T02:03:49;100004.63;;;10.45;94.58
46583;BME280;32309;48.858;8.252;2022-12-24T02:05:51;100002.16;;;10.44;94.11
46583;BME280;32309;48.858;8.252;2022-12-24T02:07:52;100001.41;;;10.42;94.46
46583;BME280;32309;48.858;8.252;2022-12-24T02:09:54;100001.41;;;10.42;94.32
46583;BME280;32309;48.858;8.252;2022-12-24T02:11:55;99997.03;;;10.42;94.45
46583;BME280;32309;48.858;8.252;2022-12-24T02:13:57;100007.31;;;10.44;93.94
46583;BME280;32309;48.858;8.252;2022-12-24T02:16:18;100011.56;;;10.45;92.97
46583;BME280;32309;48.858;8.252;2022-12-24T02:18:25;100010.75;;;10.44;93.69
46583;BME280;32309;48.858;8.252;2022-12-24T02:20:35;100010.84;;;10.43;93.79
46583;BME280;32309;48.858;8.252;2022-12-24T02:29:17;100009.91;;;10.44;91.93
46583;BME280;32309;48.858;8.252;2022-12-24T02:31:24;100008.25;;;10.43;91.49
46583;BME280;32309;48.858;8.252;2022-12-24T02:33:29;100004.81;;;10.42;90.68
46583;BME280;32309;48.858;8.252;2022-12-24T02:35:44;100009.06;;;10.43;91.26
46583;BME280;32309;48.858;8.252;2022-12-24T02:37:47;100010.84;;;10.43;90.74
46583;BME280;32309;48.858;8.252;2022-12-24T02:39:56;100001.41;;;10.42;90.59
46583;BME280;32309;48.858;8.252;2022-12-24T02:42:00;99990.94;;;10.43;90.56
46583;BME280;32309;48.858;8.252;2022-12-24T02:44:04;100002.97;;;10.44;90.20
46583;BME280;32309;48.858;8.252;2022-12-24T02:46:06;100001.28;;;10.43;90.23
46583;BME280;32309;48.858;8.252;2022-12-24T02:48:08;100007.22;;;10.45;90.34
46583;BME280;32309;48.858;8.252;2022-12-24T02:50:11;99998.59;;;10.45;90.21
46583;BME280;32309;48.858;8.252;2022-12-24T02:52:28;100002.97;;;10.44;89.99
46583;BME280;32309;48.858;8.252;2022-12-24T02:54:28;99998.59;;;10.45;89.56
46583;BME280;32309;48.858;8.252;2022-12-24T03:00:34;100006.28;;;10.46;89.75
46583;BME280;32309;48.858;8.252;2022-12-24T03:02:46;100000.19;;;10.47;89.54
46583;BME280;32309;48.858;8.252;2022-12-24T03:04:56;100007.94;;;10.47;88.71
46583;BME280;32309;48.858;8.252;2022-12-24T03:07:00;100021.66;;;10.49;88.60
46583;BME280;32309;48.858;8.252;2022-12-24T03:09:07;100031.09;;;10.51;88.82
46583;BME280;32309;48.858;8.252;2022-12-24T03:11:11;100032.75;;;10.52;88.13
46583;BME280;32309;48.858;8.252;2022-12-24T03:13:13;100021.56;;;10.51;88.39
46583;BME280;32309;48.858;8.252;2022-12-24T03:15:15;100024.91;;;10.53;89.10
46583;BME280;32309;48.858;8.252;2022-12-24T03:17:16;100026.53;;;10.54;88.90
46583;BME280;32309;48.858;8.252;2022-12-24T03:19:17;100023.03;;;10.55;89.27
46583;BME280;32309;48.858;8.252;2022-12-24T03:23:19;100013.59;;;10.54;88.73
46583;BME280;32309;48.858;8.252;2022-12-24T03:25:19;100023.94;;;10.54;88.82
46583;BME280;32309;48.858;8.252;2022-12-24T03:27:20;100024.97;;;10.52;88.63
46583;BME280;32309;48.858;8.252;2022-12-24T03:29:21;100028.31;;;10.54;90.40
46583;BME280;32309;48.858;8.252;2022-12-24T03:31:21;100037.84;;;10.53;90.47
46583;BME280;32309;48.858;8.252;2022-12-24T03:33:22;100043.09;;;10.52;92.10
46583;BME280;32309;48.858;8.252;2022-12-24T03:35:22;100050.16;;;10.49;89.18
46583;BME280;32309;48.858;8.252;2022-12-24T03:37:22;100045.78;;;10.50;89.49
46583;BME280;32309;48.858;8.252;2022-12-24T03:39:23;100038.03;;;10.50;90.50
46583;BME280;32309;48.858;8.252;2022-12-24T03:41:23;100044.97;;;10.49;90.40
46583;BME280;32309;48.858;8.252;2022-12-24T03:43:23;100034.78;;;10.46;90.16
46583;BME280;32309;48.858;8.252;2022-12-24T03:45:23;100052.00;;;10.47;90.13
46583;BME280;32309;48.858;8.252;2022-12-24T03:47:23;100059.88;;;10.46;89.61
46583;BME280;32309;48.858;8.252;2022-12-24T03:49:24;100065.97;;;10.45;89.88
46583;BME280;32309;48.858;8.252;2022-12-24T03:51:24;100056.47;;;10.45;89.54
46583;BME280;32309;48.858;8.252;2022-12-24T03:53:24;100059.06;;;10.45;91.32
46583;BME280;32309;48.858;8.252;2022-12-24T03:55:24;100055.59;;;10.45;91.68
46583;BME280;32309;48.858;8.252;2022-12-24T03:57:24;100062.66;;;10.43;91.21
46583;BME280;32309;48.858;8.252;2022-12-24T03:59:25;100072.16;;;10.42;90.30
46583;BME280;32309;48.858;8.252;2022-12-24T04:01:26;100074.75;;;10.42;90.40
46583;BME280;32309;48.858;8.252;2022-12-24T04:03:26;100074.03;;;10.40;90.28
46583;BME280;32309;48.858;8.252;2022-12-24T04:05:26;100068.09;;;10.38;89.01
46583;BME280;32309;48.858;8.252;2022-12-24T04:07:27;100083.63;;;10.38;89.76
46583;BME280;32309;48.858;8.252;2022-12-24T04:09:27;100083.75;;;10.37;89.47
46583;BME280;32309;48.858;8.252;2022-12-24T04:11:27;100080.13;;;10.39;89.24
46583;BME280;32309;48.858;8.252;2022-12-24T04:13:27;100084.50;;;10.39;88.27
46583;BME280;32309;48.858;8.252;2022-12-24T04:15:27;100091.41;;;10.38;87.84
46583;BME280;32309;48.858;8.252;2022-12-24T04:17:27;100087.16;;;10.37;86.95
46583;BME280;32309;48.858;8.252;2022-12-24T04:19:28;100084.56;;;10.37;87.06
46583;BME280;32309;48.858;8.252;2022-12-24T04:21:28;100090.50;;;10.39;87.52
46583;BME280;32309;48.858;8.252;2022-12-24T04:23:31;100087.00;;;10.40;87.37
46583;BME280;32309;48.858;8.252;2022-12-24T04:25:32;100082.72;;;10.39;86.79
46583;BME280;32309;48.858;8.252;2022-12-24T04:27:32;100084.41;;;10.40;86.53
46583;BME280;32309;48.858;8.252;2022-12-24T04:29:32;100096.50;;;10.40;85.68
46583;BME280;32309;48.858;8.252;2022-12-24T04:31:32;100106.03;;;10.39;86.41
46583;BME280;32309;48.858;8.252;2022-12-24T04:33:32;100096.59;;;10.38;85.49
46583;BME280;32309;48.858;8.252;2022-12-24T04:35:33;100085.31;;;10.39;86.90
46583;BME280;32309;48.858;8.252;2022-12-24T04:37:33;100083.63;;;10.38;86.24
46583;BME280;32309;48.858;8.252;2022-12-24T04:39:34;100086.22;;;10.38;86.04
46583;BME280;32309;48.858;8.252;2022-12-24T04:41:34;100092.34;;;10.37;85.98
46583;BME280;32309;48.858;8.252;2022-12-24T04:43:34;100118.34;;;10.36;86.40
46583;BME280;32309;48.858;8.252;2022-12-24T04:45:34;100109.75;;;10.35;85.01
46583;BME280;32309;48.858;8.252;2022-12-24T04:47:34;100114.81;;;10.37;86.34
46583;BME280;32309;48.858;8.252;2022-12-24T04:49:35;100122.59;;;10.37;85.96
46583;BME280;32309;48.858;8.252;2022-12-24T04:51:35;100139.06;;;10.36;85.43
